Time;durP1;ratioP1;P1;durP2;ratioP2;P2;SDS_P1;SDS_P2;PMS_P1;PMS_P2;Temp;Humidity;BMP_temperature;BMP_pressure;BME280_temperature;BME280_humidity;BME280_pressure;Samples;Min_cycle;Max_cycle;Signal;HPM_P1;HPM_P2
2021/12/27 00:01:49;;;;;;;;;37.67;28.00;;;;;8.28;100.00;99840.69;5057584;28;45459;-75
2021/12/27 00:04:14;;;;;;;;;32.33;28.00;;;;;8.36;100.00;99838.72;5053449;28;45402;-75
2021/12/27 00:06:39;;;;;;;;;33.00;27.00;;;;;8.40;100.00;99847.34;5045256;28;46342;-74
2021/12/27 00:09:05;;;;;;;;;31.00;26.67;;;;;8.41;100.00;99837.72;5037844;28;45460;-76
2021/12/27 00:11:30;;;;;;;;;39.33;31.00;;;;;8.35;100.00;99828.25;5051806;28;45745;-76
2021/12/27 00:13:55;;;;;;;;;39.33;30.33;;;;;8.35;100.00;99818.63;5041831;28;45712;-76
2021/12/27 00:16:21;;;;;;;;;29.33;27.33;;;;;8.32;100.00;99815.22;5039061;28;45338;-75
2021/12/27 00:18:46;;;;;;;;;29.67;27.00;;;;;8.41;100.00;99816.72;5052891;28;45404;-75
2021/12/27 00:21:12;;;;;;;;;33.67;26.00;;;;;8.49;100.00;99825.28;5040515;28;45884;-75
2021/12/27 00:23:38;;;;;;;;;34.00;29.67;;;;;8.51;100.00;99826.06;5053437;28;45454;-75
2021/12/27 00:26:04;;;;;;;;;40.33;32.33;;;;;8.52;100.00;99822.56;5042557;28;45530;-75
2021/12/27 00:28:30;;;;;;;;;30.33;26.33;;;;;8.51;100.00;99815.56;5051000;28;45416;-75
2021/12/27 00:30:57;;;;;;;;;32.33;24.67;;;;;8.52;100.00;99812.94;5050143;28;45754;-75
2021/12/27 00:33:23;;;;;;;;;33.67;26.33;;;;;8.48;100.00;99794.69;5041595;28;45474;-75
2021/12/27 00:35:49;;;;;;;;;38.00;26.00;;;;;8.63;100.00;99823.09;5050707;28;47104;-75
2021/12/27 00:38:15;;;;;;;;;32.33;26.67;;;;;8.65;100.00;99818.66;5051546;28;45787;-76
2021/12/27 00:40:40;;;;;;;;;28.33;23.00;;;;;8.67;100.00;99814.25;5033852;28;45456;-76
2021/12/27 00:43:06;;;;;;;;;24.67;23.33;;;;;8.64;100.00;99806.47;5034001;28;45444;-76
2021/12/27 00:45:31;;;;;;;;;30.67;24.33;;;;;8.65;100.00;99802.91;5053497;28;45820;-76
2021/12/27 00:47:57;;;;;;;;;23.33;21.00;;;;;8.68;100.00;99786.22;5056217;28;45755;-76
2021/12/27 00:50:22;;;;;;;;;23.00;19.00;;;;;8.78;100.00;99805.19;5055278;28;45522;-75
2021/12/27 00:52:50;;;;;;;;;28.33;24.00;;;;;8.67;100.00;99782.75;5057316;28;45387;-76
2021/12/27 00:55:15;;;;;;;;;27.00;22.00;;;;;8.82;100.00;99794.53;5045865;28;46506;-76
2021/12/27 00:57:41;;;;;;;;;25.00;20.00;;;;;8.66;100.00;99767.06;5035814;28;45946;-75
2021/12/27 01:00:11;;;;;;;;;17.33;16.00;;;;;8.83;100.00;99787.50;5035892;28;45848;-75
2021/12/27 01:02:36;;;;;;;;;20.33;18.00;;;;;8.79;100.00;99775.41;5048093;28;45636;-75
2021/12/27 01:05:02;;;;;;;;;26.00;19.33;;;;;8.86;100.00;99785.66;5055606;28;46308;-77
2021/12/27 01:07:28;;;;;;;;;28.33;21.00;;;;;8.86;100.00;99783.03;5055879;28;45441;-77
2021/12/27 01:17:54;;;;;;;;;11.67;10.67;;;;;8.93;100.00;99774.97;5036933;28;45264;-77
2021/12/27 01:20:22;;;;;;;;;23.67;19.67;;;;;8.95;100.00;99781.88;5037246;28;45824;-77
2021/12/27 01:22:48;;;;;;;;;23.00;18.00;;;;;9.01;100.00;99784.31;5037180;28;45387;-75
2021/12/27 01:25:13;;;;;;;;;26.00;19.00;;;;;8.98;100.00;99765.19;5023549;28;45679;-75
2021/12/27 01:27:40;;;;;;;;;29.67;23.67;;;;;8.97;100.00;99780.06;5037055;28;45326;-75
2021/12/27 01:30:09;;;;;;;;;29.00;22.33;;;;;9.00;100.00;99777.38;5033492;28;45383;-75
2021/12/27 01:32:40;;;;;;;;;19.67;15.67;;;;;8.89;100.00;99761.94;5017226;28;45181;-76
2021/12/27 01:35:07;;;;;;;;;28.00;21.67;;;;;8.96;100.00;99769.59;5016671;28;46746;-77
2021/12/27 01:37:32;;;;;;;;;26.00;20.33;;;;;8.94;100.00;99774.91;5016997;28;45426;-75
2021/12/27 01:39:58;;;;;;;;;30.00;23.00;;;;;8.91;100.00;99772.38;5035146;28;45360;-76
2021/12/27 01:42:23;;;;;;;;;23.00;20.00;;;;;8.87;100.00;99770.75;5028106;28;45395;-75
2021/12/27 01:44:49;;;;;;;;;30.00;24.33;;;;;8.84;100.00;99763.00;5028727;28;47385;-75
2021/12/27 01:47:14;;;;;;;;;29.00;20.00;;;;;8.87;100.00;99773.38;5036494;28;45936;-75
2021/12/27 01:49:41;;;;;;;;;25.67;25.00;;;;;8.77;100.00;99757.09;5037013;28;45323;-75
2021/12/27 01:52:07;;;;;;;;;23.33;21.67;;;;;8.85;100.00;99770.81;5036982;28;45363;-77
2021/12/27 01:54:33;;;;;;;;;36.33;27.33;;;;;8.82;100.00;99764.81;5045105;28;46274;-75
2021/12/27 01:57:00;;;;;;;;;28.33;24.00;;;;;8.84;100.00;99771.75;5069369;27;45444;-75
2021/12/27 01:59:25;;;;;;;;;28.00;25.67;;;;;8.83;100.00;99774.38;5052418;28;46019;-75
2021/12/27 02:01:51;;;;;;;;;30.00;21.67;;;;;8.76;100.00;99763.25;5041825;28;45483;-75
2021/12/27 02:04:16;;;;;;;;;26.67;23.00;;;;;8.80;100.00;99754.38;5038600;28;45678;-75
2021/12/27 02:06:42;;;;;;;;;26.33;22.67;;;;;8.78;100.00;99752.69;5059216;28;45404;-74
2021/12/27 02:09:08;;;;;;;;;26.67;23.33;;;;;8.80;100.00;99758.72;5075993;28;45829;-75
2021/12/27 02:11:34;;;;;;;;;23.33;20.00;;;;;8.76;100.00;99751.84;5060350;27;45295;-75
2021/12/27 02:14:04;;;;;;;;;21.33;15.67;;;;;8.76;100.00;99744.88;5057711;28;46436;-75
2021/12/27 02:16:31;;;;;;;;;13.33;13.33;;;;;8.66;100.00;99736.41;5058303;28;45360;-77
2021/12/27 02:18:56;;;;;;;;;19.33;13.00;;;;;8.66;100.00;99725.91;5062361;28;45467;-79
2021/12/27 02:21:23;;;;;;;;;18.00;14.00;;;;;8.74;100.00;99749.28;5058939;28;45321;-77
2021/12/27 02:23:50;;;;;;;;;16.67;13.00;;;;;8.65;100.00;99737.31;5058056;28;45416;-75
2021/12/27 02:26:16;;;;;;;;;13.50;10.00;;;;;8.74;100.00;99745.81;5057964;28;45428;-75
2021/12/27 02:28:42;;;;;;;;;11.50;9.25;;;;;8.71;100.00;99755.50;5050287;28;45277;-76
2021/12/27 02:31:08;;;;;;;;;15.33;11.67;;;;;8.68;100.00;99739.00;5038292;28;45393;-76
2021/12/27 02:33:39;;;;;;;;;11.67;10.00;;;;;8.64;100.00;99739.97;5043307;28;46421;-76
2021/12/27 02:36:05;;;;;;;;;11.50;10.75;;;;;8.62;100.00;99723.44;5068596;28;45249;-75
2021/12/27 02:38:34;;;;;;;;;16.00;12.50;;;;;8.36;100.00;99689.22;5049430;28;45245;-75
2021/12/27 02:41:01;;;;;;;;;14.00;13.33;;;;;8.45;100.00;99700.34;5038341;28;45468;-75
2021/12/27 02:43:29;;;;;;;;;14.00;14.00;;;;;8.48;100.00;99700.25;5037801;28;46674;-77
2021/12/27 02:46:00;;;;;;;;;15.67;12.00;;;;;8.51;100.00;99697.53;5053725;28;45364;-75
2021/12/27 02:48:39;;;;;;;;;10.67;10.33;;;;;8.55;100.00;99693.91;5057956;28;45482;-75
2021/12/27 02:51:05;;;;;;;;;16.75;11.25;;;;;8.52;100.00;99694.88;5058372;28;45243;-75
2021/12/27 02:53:31;;;;;;;;;12.50;12.00;;;;;8.59;100.00;99697.31;5046039;28;46599;-75
2021/12/27 02:55:58;;;;;;;;;13.67;11.67;;;;;8.60;100.00;99692.00;5038980;28;45479;-75
2021/12/27 02:58:25;;;;;;;;;17.25;13.50;;;;;8.50;100.00;99673.06;5038007;28;45440;-76
2021/12/27 03:01:11;;;;;;;;;12.50;10.25;;;;;8.62;100.00;99690.19;5055750;28;45329;-76
2021/12/27 03:03:38;;;;;;;;;15.75;11.75;;;;;8.65;100.00;99692.69;5050504;28;46072;-76
2021/12/27 03:06:06;;;;;;;;;10.75;10.50;;;;;8.53;100.00;99661.63;5047525;28;45555;-76
2021/12/27 03:08:32;;;;;;;;;12.00;9.25;;;;;8.67;100.00;99685.66;5057788;28;45399;-76
2021/12/27 03:10:59;;;;;;;;;8.00;8.00;;;;;8.61;100.00;99679.72;5057409;28;45554;-75
2021/12/27 03:13:34;;;;;;;;;10.50;9.75;;;;;8.62;100.00;99686.72;5057386;28;48365;-75
2021/12/27 03:16:05;;;;;;;;;10.25;9.25;;;;;8.60;100.00;99685.91;5057378;28;45518;-75
2021/12/27 03:18:36;;;;;;;;;10.25;8.50;;;;;8.62;100.00;99695.44;5058896;28;45478;-75
2021/12/27 03:21:03;;;;;;;;;11.50;9.75;;;;;8.61;100.00;99684.97;5050111;28;45317;-75
2021/12/27 03:23:29;;;;;;;;;8.25;4.75;;;;;8.63;100.00;99686.66;5069429;28;46264;-75
2021/12/27 03:25:54;;;;;;;;;7.25;6.00;;;;;8.53;100.00;99674.75;5046030;28;45483;-76
2021/12/27 03:28:21;;;;;;;;;10.50;9.50;;;;;8.54;100.00;99687.81;5037533;28;45651;-75
2021/12/27 03:30:47;;;;;;;;;9.50;7.25;;;;;8.53;100.00;99682.59;5061867;28;45800;-76
2021/12/27 03:33:13;;;;;;;;;8.00;6.50;;;;;8.53;100.00;99685.22;5057368;28;46950;-76
2021/12/27 03:35:41;;;;;;;;;9.50;7.75;;;;;8.49;100.00;99678.38;5056709;28;45245;-76
2021/12/27 03:38:10;;;;;;;;;30.00;23.67;;;;;8.46;100.00;99674.06;5049815;28;45436;-76
2021/12/27 03:40:38;;;;;;;;;11.75;8.25;;;;;8.49;100.00;99684.47;5037507;28;45235;-76
2021/12/27 03:43:04;;;;;;;;;10.25;9.00;;;;;8.51;100.00;99684.41;5036918;28;46377;-76
2021/12/27 03:45:30;;;;;;;;;10.50;10.25;;;;;8.51;100.00;99682.66;5064688;28;45325;-76
2021/12/27 03:47:57;;;;;;;;;13.50;12.25;;;;;8.51;100.00;99682.66;5054024;27;45517;-77
2021/12/27 03:50:25;;;;;;;;;11.50;10.25;;;;;8.52;100.00;99681.75;5052075;28;45481;-76
2021/12/27 03:52:51;;;;;;;;;8.67;8.67;;;;;8.46;100.00;99663.56;5057031;28;46370;-76
2021/12/27 03:55:16;;;;;;;;;10.50;7.00;;;;;8.43;100.00;99649.69;5056985;28;45821;-76
2021/12/27 03:57:50;;;;;;;;;8.50;4.75;;;;;8.46;100.00;99649.59;5056158;28;45360;-76
2021/12/27 04:02:50;;;;;;;;;10.50;6.75;;;;;8.51;100.00;99664.31;5055956;28;45328;-76
2021/12/27 04:05:17;;;;;;;;;12.50;7.25;;;;;8.55;100.00;99665.03;5036950;28;45253;-76
2021/12/27 04:07:48;;;;;;;;;13.75;6.75;;;;;8.50;100.00;99657.31;5038890;28;45448;-75
2021/12/27 04:10:14;;;;;;;;;9.75;9.50;;;;;8.50;100.00;99653.84;5077528;28;45389;-76
2021/12/27 04:12:39;;;;;;;;;10.25;8.50;;;;;8.51;100.00;99653.81;5061883;28;46378;-76
2021/12/27 04:15:09;;;;;;;;;12.25;10.75;;;;;8.46;100.00;99641.75;5056908;28;45411;-77
2021/12/27 04:17:35;;;;;;;;;9.00;9.00;;;;;8.55;100.00;99657.16;5055177;28;45258;-77
2021/12/27 04:20:01;;;;;;;;;11.25;11.25;;;;;8.47;100.00;99633.81;5056922;28;45328;-75
2021/12/27 04:22:26;;;;;;;;;11.25;11.00;;;;;8.58;100.00;99649.19;5058850;28;45409;-75
2021/12/27 04:24:51;;;;;;;;;10.25;9.75;;;;;8.57;100.00;99637.00;5060360;28;45314;-76
2021/12/27 04:27:17;;;;;;;;;28.00;21.67;;;;;8.57;100.00;99631.75;5060581;28;45331;-75
2021/12/27 04:29:44;;;;;;;;;9.25;8.50;;;;;8.62;100.00;99634.22;5060522;28;45412;-75
2021/12/27 04:32:09;;;;;;;;;15.50;13.75;;;;;8.68;100.00;99644.50;5055483;28;47475;-76
2021/12/27 04:34:35;;;;;;;;;19.67;17.33;;;;;8.62;100.00;99640.31;5060151;28;45278;-75
2021/12/27 04:37:00;;;;;;;;;19.00;12.33;;;;;8.65;100.00;99642.84;5060268;28;45427;-75
2021/12/27 04:39:26;;;;;;;;;11.50;9.50;;;;;8.56;100.00;99627.41;5060446;28;45489;-75
2021/12/27 04:41:52;;;;;;;;;17.33;11.00;;;;;8.62;100.00;99644.72;5045195;28;46640;-75
2021/12/27 04:44:17;;;;;;;;;14.33;11.00;;;;;8.54;100.00;99630.09;5040034;28;45263;-75
2021/12/27 04:46:43;;;;;;;;;16.33;12.33;;;;;8.63;100.00;99635.97;5041206;28;45209;-75
2021/12/27 04:49:08;;;;;;;;;14.00;9.25;;;;;8.65;100.00;99648.09;5080326;27;45238;-75
2021/12/27 04:51:34;;;;;;;;;15.75;11.75;;;;;8.67;100.00;99648.03;5080361;27;46304;-75
2021/12/27 04:53:59;;;;;;;;;14.50;12.00;;;;;8.64;100.00;99633.28;5077562;27;45516;-75
2021/12/27 04:56:25;;;;;;;;;13.25;10.00;;;;;8.66;100.00;99636.69;5059883;28;45829;-75
2021/12/27 04:58:51;;;;;;;;;22.00;12.33;;;;;8.62;100.00;99621.09;5060133;28;45439;-75
2021/12/27 05:01:17;;;;;;;;;15.50;14.00;;;;;8.61;100.00;99617.63;5059777;28;46080;-74
2021/12/27 05:03:42;;;;;;;;;19.00;13.00;;;;;8.62;100.00;99623.72;5062768;28;45540;-74
2021/12/27 05:06:09;;;;;;;;;20.00;15.00;;;;;8.68;100.00;99631.41;5080086;27;45369;-75
2021/12/27 05:08:34;;;;;;;;;22.00;13.67;;;;;8.68;100.00;99631.41;5071208;27;46904;-74
2021/12/27 05:11:00;;;;;;;;;24.67;19.00;;;;;8.64;100.00;99622.78;5056097;27;45241;-74
2021/12/27 05:13:25;;;;;;;;;21.33;20.00;;;;;8.69;100.00;99620.00;5039369;28;45227;-75
2021/12/27 05:15:51;;;;;;;;;20.67;14.67;;;;;8.72;100.00;99619.91;5057143;28;45230;-75
2021/12/27 05:18:16;;;;;;;;;21.67;18.00;;;;;8.68;100.00;99615.66;5059550;28;45415;-75
2021/12/27 05:20:41;;;;;;;;;20.00;18.67;;;;;8.64;100.00;99595.66;5058677;28;47209;-75
2021/12/27 05:23:07;;;;;;;;;24.00;17.00;;;;;8.68;100.00;99600.78;5048176;28;45222;-75
2021/12/27 05:25:32;;;;;;;;;27.00;22.67;;;;;8.68;100.00;99592.03;5058995;28;45293;-76
2021/12/27 05:27:58;;;;;;;;;24.67;24.00;;;;;8.64;100.00;99596.53;5059610;28;45297;-75
2021/12/27 05:30:23;;;;;;;;;30.00;21.67;;;;;8.65;100.00;99600.00;5059187;28;46344;-75
2021/12/27 05:32:48;;;;;;;;;28.00;21.33;;;;;8.61;100.00;99588.78;5058234;28;45380;-75
2021/12/27 05:35:15;;;;;;;;;30.33;25.33;;;;;8.69;100.00;99597.22;5055487;28;45400;-76
2021/12/27 05:37:42;;;;;;;;;25.67;19.00;;;;;8.69;100.00;99586.72;5059539;28;45412;-75
2021/12/27 05:40:11;;;;;;;;;26.33;20.33;;;;;8.65;100.00;99574.63;5059158;28;45339;-75
2021/12/27 05:42:37;;;;;;;;;20.00;20.00;;;;;8.65;100.00;99566.75;5058872;28;45480;-75
2021/12/27 05:45:05;;;;;;;;;26.67;23.67;;;;;8.68;100.00;99556.19;5046354;28;45191;-75
2021/12/27 05:47:31;;;;;;;;;22.00;15.33;;;;;8.72;100.00;99559.53;5064251;28;45505;-76
2021/12/27 05:49:56;;;;;;;;;28.33;21.67;;;;;8.74;100.00;99560.31;5077390;28;46545;-76
2021/12/27 05:52:22;;;;;;;;;28.33;21.00;;;;;8.81;100.00;99567.06;5075210;27;45261;-75
2021/12/27 05:54:47;;;;;;;;;31.33;20.67;;;;;8.80;100.00;99565.38;5058691;28;45332;-75
2021/12/27 05:57:13;;;;;;;;;25.00;20.33;;;;;8.73;100.00;99540.25;5059190;28;45289;-75
2021/12/27 05:59:38;;;;;;;;;28.33;20.00;;;;;8.82;100.00;99555.69;5074740;27;45606;-75
2021/12/27 06:02:04;;;;;;;;;25.00;19.33;;;;;8.84;100.00;99553.88;5055188;27;45425;-76
2021/12/27 06:04:29;;;;;;;;;27.33;23.00;;;;;8.78;100.00;99540.09;5038734;28;45500;-76
2021/12/27 06:06:54;;;;;;;;;25.33;21.33;;;;;8.86;100.00;99536.28;5056951;28;45331;-76
2021/12/27 06:09:20;;;;;;;;;24.00;20.00;;;;;8.85;100.00;99529.31;5058758;28;45550;-77
2021/12/27 06:11:45;;;;;;;;;26.00;20.33;;;;;8.82;100.00;99521.56;5039715;28;45230;-76
2021/12/27 06:14:11;;;;;;;;;24.67;21.33;;;;;8.90;100.00;99529.16;5058761;28;45466;-75
2021/12/27 06:16:36;;;;;;;;;21.67;15.00;;;;;8.87;100.00;99519.66;5058912;28;45205;-75
2021/12/27 06:19:02;;;;;;;;;25.33;19.67;;;;;8.92;100.00;99522.09;5058233;28;46257;-75
2021/12/27 06:21:27;;;;;;;;;28.00;23.67;;;;;8.84;100.00;99498.75;5060729;28;45235;-75
2021/12/27 06:23:53;;;;;;;;;22.67;16.33;;;;;8.94;100.00;99514.16;5057695;28;45452;-75
2021/12/27 06:26:19;;;;;;;;;27.67;19.67;;;;;8.95;100.00;99508.00;5038950;28;45368;-75
2021/12/27 06:28:45;;;;;;;;;21.00;18.00;;;;;8.86;100.00;99496.06;5038336;28;46591;-76
2021/12/27 06:31:11;;;;;;;;;24.67;21.67;;;;;8.98;100.00;99519.25;5056905;28;45361;-76
2021/12/27 06:33:36;;;;;;;;;23.67;21.67;;;;;8.92;100.00;99492.34;5058406;28;45330;-78
2021/12/27 06:36:03;;;;;;;;;21.00;15.00;;;;;9.01;100.00;99499.91;5050891;28;45428;-75
2021/12/27 06:38:28;;;;;;;;;30.33;27.33;;;;;8.93;100.00;99481.81;5058982;28;47240;-76
2021/12/27 06:40:54;;;;;;;;;26.33;22.33;;;;;9.02;100.00;99496.38;5058132;28;45470;-75
2021/12/27 06:43:19;;;;;;;;;20.67;19.67;;;;;8.94;100.00;99482.66;5058135;28;45281;-75
2021/12/27 06:45:45;;;;;;;;;24.67;18.00;;;;;8.94;100.00;99486.13;5057868;28;45311;-75
2021/12/27 06:48:11;;;;;;;;;22.00;17.33;;;;;8.99;100.00;99494.72;5062030;28;45749;-75
2021/12/27 06:50:36;;;;;;;;;23.33;19.00;;;;;8.94;100.00;99488.75;5058901;27;45455;-75
2021/12/27 06:53:02;;;;;;;;;19.33;18.67;;;;;8.88;100.00;99463.59;5058050;28;45269;-76
2021/12/27 06:55:28;;;;;;;;;25.00;20.67;;;;;8.94;100.00;99466.91;5059185;28;45363;-75
2021/12/27 06:57:53;;;;;;;;;22.00;19.33;;;;;8.95;100.00;99469.47;5061675;28;46414;-75
2021/12/27 07:00:19;;;;;;;;;30.00;20.33;;;;;9.01;100.00;99471.88;5061392;28;45222;-75
2021/12/27 07:02:45;;;;;;;;;23.00;18.33;;;;;9.03;100.00;99469.19;5052284;28;45428;-75
2021/12/27 07:05:11;;;;;;;;;20.67;19.33;;;;;8.98;100.00;99458.88;5054103;28;45483;-75
2021/12/27 07:07:38;;;;;;;;;26.33;23.00;;;;;9.06;100.00;99467.31;5056601;28;45458;-75
2021/12/27 07:10:06;;;;;;;;;25.67;23.00;;;;;9.04;100.00;99463.03;5057797;28;45290;-75
2021/12/27 07:12:32;;;;;;;;;27.00;22.67;;;;;9.03;100.00;99461.31;5042244;28;45403;-75
2021/12/27 07:14:58;;;;;;;;;25.67;20.67;;;;;9.06;100.00;99454.19;5038093;28;45614;-75
2021/12/27 07:17:24;;;;;;;;;25.33;23.00;;;;;8.90;100.00;99411.03;5042147;28;45369;-75
2021/12/27 07:19:49;;;;;;;;;20.00;14.33;;;;;9.15;100.00;99441.59;5037081;28;45322;-75
2021/12/27 07:22:15;;;;;;;;;25.33;21.67;;;;;9.13;100.00;99441.66;5040857;28;45247;-75
2021/12/27 07:24:41;;;;;;;;;23.00;18.67;;;;;9.16;100.00;99445.94;5045710;28;45620;-75
2021/12/27 07:27:06;;;;;;;;;25.33;18.00;;;;;9.08;100.00;99430.50;5058881;28;46594;-75
2021/12/27 07:29:32;;;;;;;;;30.67;20.00;;;;;9.13;100.00;99441.66;5073183;27;45319;-75
2021/12/27 07:31:57;;;;;;;;;23.00;18.67;;;;;9.10;100.00;99423.41;5046982;27;45856;-75
2021/12/27 07:34:24;;;;;;;;;27.33;19.33;;;;;9.23;100.00;99443.03;5040338;28;45795;-75
2021/12/27 07:36:52;;;;;;;;;28.33;16.33;;;;;9.19;100.00;99436.22;5042543;28;46627;-76
2021/12/27 07:39:20;;;;;;;;;23.33;21.33;;;;;9.23;100.00;99435.16;5053685;28;45476;-72
2021/12/27 07:41:45;;;;;;;;;30.00;24.00;;;;;9.20;100.00;99427.38;5049239;28;45377;-72
2021/12/27 07:44:11;;;;;;;;;23.67;22.33;;;;;9.21;100.00;99430.88;5036743;28;45456;-74
2021/12/27 07:46:40;;;;;;;;;22.33;19.00;;;;;9.17;100.00;99424.03;5037066;28;46057;-72
2021/12/27 07:49:07;;;;;;;;;28.67;21.67;;;;;9.24;100.00;99430.78;5056520;28;45506;-72
2021/12/27 07:51:33;;;;;;;;;15.67;15.33;;;;;9.21;100.00;99412.50;5057304;28;45176;-73
2021/12/27 07:53:58;;;;;;;;;22.67;21.00;;;;;9.27;100.00;99416.66;5055898;28;45500;-76
2021/12/27 07:56:23;;;;;;;;;27.67;22.00;;;;;9.17;100.00;99408.28;5056737;28;46264;-76
2021/12/27 07:58:49;;;;;;;;;28.00;22.00;;;;;9.13;100.00;99402.28;5049746;28;45390;-76
2021/12/27 08:01:16;;;;;;;;;29.33;25.00;;;;;9.24;100.00;99429.00;5040684;28;45753;-76
2021/12/27 08:03:42;;;;;;;;;24.67;21.67;;;;;9.24;100.00;99417.63;5042905;28;45354;-76
2021/12/27 08:06:07;;;;;;;;;32.00;25.33;;;;;9.22;100.00;99411.56;5052722;28;45459;-75
2021/12/27 08:08:33;;;;;;;;;29.00;26.67;;;;;9.30;100.00;99420.03;5059588;28;45296;-77
2021/12/27 08:10:58;;;;;;;;;31.00;23.67;;;;;9.33;100.00;99419.06;5059684;28;45495;-75
2021/12/27 08:13:23;;;;;;;;;26.67;23.00;;;;;9.36;100.00;99421.56;5040515;28;45493;-75
2021/12/27 08:15:49;;;;;;;;;21.33;21.33;;;;;9.10;100.00;99373.53;5040349;28;45612;-74
2021/12/27 08:18:14;;;;;;;;;23.00;18.33;;;;;9.41;100.00;99414.38;5040241;28;45551;-77
2021/12/27 08:20:39;;;;;;;;;36.33;29.00;;;;;9.30;100.00;99399.00;5054272;28;45254;-76
2021/12/27 08:23:05;;;;;;;;;25.00;24.00;;;;;9.41;100.00;99417.00;5059257;28;45317;-74
2021/12/27 08:25:30;;;;;;;;;29.67;22.33;;;;;9.47;100.00;99421.13;5060409;28;45538;-76
2021/12/27 08:27:58;;;;;;;;;29.67;25.33;;;;;9.44;100.00;99408.97;5060392;28;45214;-78
2021/12/27 08:30:24;;;;;;;;;28.33;17.67;;;;;9.50;100.00;99413.13;5060191;28;45392;-76
2021/12/27 08:32:52;;;;;;;;;20.00;19.00;;;;;9.55;100.00;99414.63;5060473;28;45530;-75
2021/12/27 08:35:17;;;;;;;;;21.00;18.00;;;;;9.57;100.00;99417.22;5059991;28;46652;-77
2021/12/27 08:37:44;;;;;;;;;22.00;18.33;;;;;9.54;100.00;99409.44;5059826;28;45329;-76
2021/12/27 08:40:11;;;;;;;;;20.33;18.67;;;;;9.64;100.00;99416.03;5043609;28;45346;-74
2021/12/27 08:42:36;;;;;;;;;25.33;25.33;;;;;9.63;100.00;99411.72;5040117;28;45215;-74
2021/12/27 08:45:03;;;;;;;;;18.67;16.67;;;;;9.66;100.00;99422.09;5039721;28;45187;-74
2021/12/27 08:47:29;;;;;;;;;20.67;16.67;;;;;9.71;100.00;99416.66;5059187;28;45594;-74
2021/12/27 08:49:55;;;;;;;;;29.00;22.33;;;;;9.68;100.00;99401.03;5042354;28;45499;-74
2021/12/27 08:52:21;;;;;;;;;23.00;20.67;;;;;9.75;100.00;99416.47;5039955;28;45416;-74
2021/12/27 08:54:46;;;;;;;;;20.33;17.67;;;;;9.76;100.00;99412.09;5039886;28;46475;-74
2021/12/27 08:57:13;;;;;;;;;28.00;20.00;;;;;9.72;100.00;99397.34;5040022;28;45512;-75
2021/12/27 08:59:39;;;;;;;;;27.33;17.00;;;;;9.81;100.00;99401.38;5058217;28;45410;-74
2021/12/27 09:02:05;;;;;;;;;16.25;14.75;;;;;9.79;100.00;99393.56;5060190;28;45423;-73
2021/12/27 09:04:31;;;;;;;;;20.67;17.67;;;;;9.83;100.00;99404.78;5039783;28;45532;-75
2021/12/27 09:06:58;;;;;;;;;17.50;16.25;;;;;9.81;100.00;99396.97;5038789;28;45370;-75
2021/12/27 09:09:23;;;;;;;;;19.50;15.00;;;;;9.84;100.00;99393.34;5039214;28;45322;-75
2021/12/27 09:11:48;;;;;;;;;17.33;17.00;;;;;9.85;100.00;99385.41;5048982;28;45475;-74
2021/12/27 09:14:14;;;;;;;;;20.33;17.67;;;;;9.85;100.00;99380.16;5059632;28;45512;-76
2021/12/27 09:16:41;;;;;;;;;23.33;18.67;;;;;9.78;100.00;99365.53;5059315;28;45163;-75
2021/12/27 09:19:07;;;;;;;;;20.00;16.33;;;;;9.89;100.00;99381.72;5040896;28;45547;-75
2021/12/27 09:21:32;;;;;;;;;16.67;14.67;;;;;9.94;100.00;99397.31;5038954;28;45504;-75
2021/12/27 09:23:58;;;;;;;;;15.67;15.00;;;;;9.83;100.00;99379.38;5040582;28;46013;-74
2021/12/27 09:26:23;;;;;;;;;17.75;13.75;;;;;9.93;100.00;99399.09;5043286;28;45424;-75
2021/12/27 09:28:49;;;;;;;;;20.33;15.33;;;;;9.92;100.00;99383.38;5042104;28;45426;-73
2021/12/27 09:31:14;;;;;;;;;14.00;14.00;;;;;10.01;100.00;99397.91;5045838;28;45354;-74
2021/12/27 09:33:40;;;;;;;;;18.33;15.33;;;;;9.97;100.00;99398.97;5050679;28;45364;-74
2021/12/27 09:36:06;;;;;;;;;18.75;16.50;;;;;10.05;100.00;99402.97;5057263;28;45241;-74
2021/12/27 09:38:31;;;;;;;;;20.33;18.00;;;;;10.02;100.00;99404.84;5057832;28;45349;-74
2021/12/27 09:40:57;;;;;;;;;15.33;14.00;;;;;10.02;100.00;99396.97;5038995;28;45289;-74
2021/12/27 09:43:24;;;;;;;;;29.00;21.00;;;;;10.13;100.00;99407.91;5039112;28;45384;-77
2021/12/27 09:45:52;;;;;;;;;24.33;21.00;;;;;10.12;100.00;99406.19;5047445;28;45615;-75
2021/12/27 09:48:17;;;;;;;;;15.67;14.00;;;;;10.18;100.00;99405.94;5056155;28;45392;-76
2021/12/27 09:50:48;;;;;;;;;19.00;19.00;;;;;10.24;100.00;99405.66;5056910;28;45354;-75
2021/12/27 09:53:14;;;;;;;;;17.00;15.00;;;;;10.22;100.00;99404.03;5058545;28;46609;-76
2021/12/27 09:55:39;;;;;;;;;24.00;21.00;;;;;10.26;100.00;99408.22;5054888;28;45779;-76
2021/12/27 09:58:06;;;;;;;;;21.00;17.00;;;;;10.27;100.00;99402.91;5038369;28;45491;-76
2021/12/27 10:00:32;;;;;;;;;21.00;18.67;;;;;10.34;100.00;99400.03;5039091;28;45409;-76
2021/12/27 10:02:58;;;;;;;;;19.00;16.00;;;;;10.29;100.00;99380.00;5049750;28;45453;-75
2021/12/27 10:05:26;;;;;;;;;15.33;14.33;;;;;10.31;100.00;99376.47;5054278;28;45486;-76
2021/12/27 10:07:51;;;;;;;;;10.75;9.50;;;;;10.41;100.00;99383.06;5047514;28;45399;-77
2021/12/27 10:10:18;;;;;;;;;18.00;15.00;;;;;10.48;100.00;99384.50;5042949;28;45266;-75
2021/12/27 10:12:45;;;;;;;;;15.67;13.67;;;;;10.51;100.00;99384.34;5069231;28;45503;-75
2021/12/27 10:15:22;;;;;;;;;10.67;10.67;;;;;10.56;100.00;99387.66;5058443;28;45422;-76
2021/12/27 10:17:49;;;;;;;;;16.67;14.67;;;;;10.59;100.00;99394.56;5058802;28;45324;-73
2021/12/27 10:20:16;;;;;;;;;17.25;13.75;;;;;10.63;100.00;99380.34;5049425;28;45401;-75
2021/12/27 10:22:54;;;;;;;;;13.00;12.67;;;;;10.65;100.00;99389.00;5047003;28;45513;-75
2021/12/27 10:25:23;;;;;;;;;12.00;11.75;;;;;10.65;100.00;99377.63;5037450;28;45534;-75
2021/12/27 10:27:50;;;;;;;;;15.00;14.00;;;;;10.70;100.00;99373.00;5037682;28;45439;-77
2021/12/27 10:30:21;;;;;;;;;12.25;9.75;;;;;10.61;100.00;99359.31;5038248;28;45258;-76
2021/12/27 10:33:02;;;;;;;;;13.00;10.00;;;;;10.73;100.00;99370.22;5058468;28;45406;-76
2021/12/27 10:35:43;;;;;;;;;14.00;10.00;;;;;10.68;100.00;99356.44;5059186;27;45495;-77
2021/12/27 10:38:41;;;;;;;;;14.00;10.50;;;;;10.83;100.00;99365.41;5058436;28;45453;-78
2021/12/27 10:41:11;;;;;;;;;8.00;8.00;;;;;10.83;100.00;99360.97;5000874;28;45512;-79
2021/12/27 10:43:42;;;;;;;;;12.25;10.50;;;;;10.90;100.00;99356.28;5003081;28;46624;-76
2021/12/27 10:46:16;;;;;;;;;11.00;9.25;;;;;10.90;100.00;99351.88;5006043;28;45484;-76
2021/12/27 10:48:46;;;;;;;;;8.00;7.00;;;;;10.92;100.00;99350.03;4996998;28;45776;-77
2021/12/27 10:51:12;;;;;;;;;13.25;11.75;;;;;10.92;100.00;99357.06;5001997;28;45424;-77
2021/12/27 10:53:46;;;;;;;;;11.75;11.25;;;;;10.94;100.00;99365.75;4996789;28;46171;-77
2021/12/27 10:56:12;;;;;;;;;12.00;10.00;;;;;10.86;100.00;99344.19;4999681;28;45504;-77
2021/12/27 10:58:46;;;;;;;;;14.75;10.50;;;;;10.84;100.00;99338.16;4996208;28;45395;-77
2021/12/27 11:01:14;;;;;;;;;14.00;11.75;;;;;10.94;100.00;99352.59;5000154;28;45521;-77
2021/12/27 11:03:43;;;;;;;;;13.25;10.00;;;;;10.98;100.00;99359.44;4995445;28;45436;-78
2021/12/27 11:06:13;;;;;;;;;27.00;27.00;;;;;10.73;100.00;99313.19;4996667;28;45379;-78
2021/12/27 11:08:42;;;;;;;;;12.00;11.75;;;;;10.89;100.00;99349.31;5009999;28;45458;-78
2021/12/27 11:11:08;;;;;;;;;10.75;8.25;;;;;10.93;100.00;99349.09;5009375;28;45404;-77
2021/12/27 11:13:34;;;;;;;;;7.75;7.00;;;;;10.92;100.00;99339.50;5025106;28;46203;-78
2021/12/27 11:16:00;;;;;;;;;6.25;5.75;;;;;10.92;100.00;99343.91;5020903;28;45365;-77
2021/12/27 11:18:26;;;;;;;;;14.00;10.00;;;;;10.92;100.00;99347.41;5053097;28;45551;-75
2021/12/27 11:21:05;;;;;;;;;9.25;7.50;;;;;10.95;100.00;99349.03;5052591;28;45532;-75
2021/12/27 11:23:31;;;;;;;;;10.00;10.00;;;;;10.84;100.00;99325.84;5049269;28;45520;-77
2021/12/27 11:26:01;;;;;;;;;16.75;11.00;;;;;10.99;100.00;99337.41;5035588;28;45676;-77